Phoenix, AZ

7:28 AM MST on March 28, 2015 (GMT -0700)
APRSWXNET Phoenix AZ US | | Change Station
CLOSE
Current Station
Personal Weather Station
Location: Phoenix, AZ
Elevation: 1085 ft
Nearby Weather Stations

Elev 1085 ft 33.41 °N, 111.99 °W | Updated 26 days ago

Clear
Clear
72 °F
Feels Like 72 °F
N
6
Wind Variable Wind from East
Gusts mph

Today
High -- | Low -- °F
--% Chance of Precip.
Yesterday
High -- | Low -- °F
Precip. -- in
6:21 AM 6:45 PM
Waxing Gibbous, 63% visible
Pressure 30.00 in
Visibility 10.0 miles
Clouds Clear
Dew Point 27 °F
Humidity 18%
Rainfall in
Snow Depth Not available.
UV 0 out of 12
Pollen 11.10 out of 12
Air Quality Not available.
Flu Activity Not available.
METAR KPHX 281351Z 12006KT 10SM CLR 18/M01 A3004 RMK AO2 SLP157 T01831006

More Conditions Fewer Conditions

Pressure 30.00 in
Visibility 10.0 miles
Clouds Clear
Dew Point 27 °F
Humidity 18%
Rainfall in
Snow Depth Not available.
UV 0 out of 12
Pollen 11.10 out of 12
Air Quality Not available.
Flu Activity Not available.
METAR KPHX 281351Z 12006KT 10SM CLR 18/M01 A3004 RMK AO2 SLP157 T01831006

More Conditions Fewer Conditions

10-Day Weather Forecast

Almanac

Astronomy

Mar. 28, 2015 Rise Set
Actual Time
Civil Twilight
Nautical Twilight
Astronomical Twilight
Moon
Length of Visible Light
Length of Day
Tomorrow will be .
, % of the Moon is Illuminated

Today's Extremes

State Highs State Lows

Community

WunderPhotos

Upload Photos

1,808,984 photos uploaded!

WunderBlogs® & News

Nearby

Air Quality

  Air Quality AQ Index Pollutant
Not available.

Snow Depth

Station Depth Elevation

Earthquake Activity

City Distance Mag. Time & Date
Minimum magnitude displayed is 2.5.

Coastal Water Temperatures

Place Temperature

Stations

Nearby Weather Stations

Station Location Temp. Windchill Dew Point Humidity Wind Precip. Elev Updated Type